Adin, CA

5:07 PM PST on March 02, 2015 (GMT -0800)
KCAMCART2 | Change Station
CLOSE
Current Station
Personal Weather Station
Location: Lookout, CA
Elevation: 4265 ft
Nearby Weather Stations

Elev 4265 ft 41.23 °N, 121.22 °W | Updated 15 seconds ago

Partly Cloudy
Partly Cloudy
45.2 °F
Feels Like 45 °F
N
0.4
Wind Variable Wind from WSW
Gusts 2.5 mph

Today
High -- | Low -- °F
--% Chance of Precip.
Yesterday
High -- | Low -- °F
Precip. -- in
6:36 AM 5:55 PM
Waxing Gibbous, 93% visible
Pressure 29.80 in
Visibility 10.0 miles
Clouds Mostly Cloudy 6000 ft
Overcast 8500 ft
Windchill 45 °F
Dew Point 27 °F
Humidity 50%
Rainfall 0.02 in
Snow Depth Not available.
UV 0 out of 12
Pollen 6.60 out of 12
Air Quality Not available.
Flu Activity Not available.
METAR KAAT 030055Z AUTO 26014KT 10SM BKN060 OVC085 08/M06 A2978 RMK AO2 SLP090 T00781056

More Conditions Fewer Conditions

Pressure 29.80 in
Visibility 10.0 miles
Clouds Mostly Cloudy 6000 ft
Overcast 8500 ft
Windchill 45 °F
Dew Point 27 °F
Humidity 50%
Rainfall 0.02 in
Snow Depth Not available.
UV 0 out of 12
Pollen 6.60 out of 12
Air Quality Not available.
Flu Activity Not available.
METAR KAAT 030055Z AUTO 26014KT 10SM BKN060 OVC085 08/M06 A2978 RMK AO2 SLP090 T00781056

More Conditions Fewer Conditions

10-Day Weather Forecast

Almanac

Astronomy

Mar. 02, 2015 Rise Set
Actual Time
Civil Twilight
Nautical Twilight
Astronomical Twilight
Moon
Length of Visible Light
Length of Day
Tomorrow will be .
, % of the Moon is Illuminated

Today's Extremes

State Highs State Lows

Community

WunderPhotos

Upload Photos

1,802,016 photos uploaded!

WunderBlogs® & News

Nearby

Air Quality

  Air Quality AQ Index Pollutant
Not available.

Snow Depth

Station Depth Elevation

Earthquake Activity

City Distance Mag. Time & Date
Minimum magnitude displayed is 2.5.

Coastal Water Temperatures

Place Temperature

Nearby Weather Stations